Bene — 9AA9805 — position and weather

sailwx.info

Track history (hours):
 
Tides and Currents Weather Stations Pressure Air Temp Water Temp Dewpoint Dewpoint Depression Visibility Wind Speed Wind Dir Waves Ship Positions

Bene

Last reported at 2017-Nov-19 23:32 UTC. Time now 2017-Dec-11 00:16 UTC.
Position S 28°40' E 036°09'.
Warning: this ship's position is 21 days out of date.

Length 190 m; draft 10.9 m.

Type: Cargo ship. MMSI: 238309000.

Date/timePositionNaut miles runAvg speedWind from/ knotsBaromVisibWave heightAir tempDewpointWater temp
2017-Nov-19 23:32S 28°40' E 036°09'110.3
2017-Nov-19 23:29S 28°41' E 036°09'610.0
2017-Nov-19 22:54S 28°42' E 036°03'9 9.6
2017-Nov-19 22:01S 28°44' E 035°53'0 9.0
2017-Nov-19 22:00S 28°44' E 035°53'5 9.2
2017-Nov-19 21:30S 28°45' E 035°48'5 9.5
2017-Nov-19 21:00S 28°46' E 035°43'5 9.6
2017-Nov-19 20:30S 28°47' E 035°37'6 9.9
2017-Nov-19 19:54S 28°49' E 035°31'11 9.5
2017-Nov-19 18:46S 28°52' E 035°19'8 9.2
2017-Nov-19 17:54S 28°54' E 035°10'4 9.2
2017-Nov-19 17:30S 28°55' E 035°06'11 9.3
2017-Nov-19 16:21S 28°58' E 034°54'3 9.6
2017-Nov-19 16:00S 28°59' E 034°51'7 9.6
2017-Nov-19 15:20S 29°01' E 034°43'4 9.6
2017-Nov-19 14:53S 29°02' E 034°39'4 9.6
2017-Nov-19 14:30S 29°02' E 034°35'5 9.6
2017-Nov-19 14:00S 29°04' E 034°29'6 9.4
2017-Nov-19 13:23S 29°05' E 034°23'17 9.1
2017-Nov-19 11:31S 29°10' E 034°04'0 9.4
2017-Nov-19 11:30S 29°10' E 034°04'4 8.9
2017-Nov-19 11:00S 29°11' E 033°59'4 8.8
2017-Nov-19 10:30S 29°12' E 033°54'4 8.7
2017-Nov-19 10:00S 29°13' E 033°49'18 8.7
2017-Nov-19 07:57S 29°18' E 033°29'4 8.8
2017-Nov-19 07:27S 29°19' E 033°25'4 9.0
2017-Nov-19 07:00S 29°20' E 033°20'4 8.8
2017-Nov-19 06:30S 29°22' E 033°15'5 8.8
2017-Nov-19 05:58S 29°23' E 033°10'4 8.8
2017-Nov-19 05:30S 29°24' E 033°06'8 8.8
2017-Nov-19 04:34S 29°26' E 032°56'2 8.6
2017-Nov-19 04:17S 29°27' E 032°54'3 8.6
2017-Nov-19 03:59S 29°27' E 032°51'4 8.4
2017-Nov-19 03:30S 29°28' E 032°47'4 8.4
2017-Nov-19 03:00S 29°30' E 032°42'4 8.5
2017-Nov-19 02:30S 29°31' E 032°37'4 8.5
2017-Nov-19 02:00S 29°32' E 032°33'4 8.8
2017-Nov-19 01:30S 29°33' E 032°28'5 9.0
2017-Nov-19 01:00S 29°34' E 032°23'5 9.1
2017-Nov-19 00:30S 29°35' E 032°18'5 9.2
2017-Nov-19 00:00S 29°36' E 032°12'5 9.1
2017-Nov-18 23:30S 29°37' E 032°07'5 9.0
2017-Nov-18 23:00S 29°38' E 032°02'4 8.9
2017-Nov-18 22:30S 29°40' E 031°57'4 8.7
2017-Nov-18 22:00S 29°41' E 031°53'4 8.8
2017-Nov-18 21:30S 29°42' E 031°48'510.3
2017-Nov-18 21:00S 29°43' E 031°42'611.3
2017-Nov-18 20:30S 29°44' E 031°35'611.3
2017-Nov-18 20:00S 29°46' E 031°29'611.2
2017-Nov-18 19:30S 29°47' E 031°23'611.5
2017-Nov-18 19:00S 29°49' E 031°17'611.0
2017-Nov-18 18:30S 29°50' E 031°11'6 9.5
2017-Nov-18 17:52S 29°52' E 031°04'2 4.8
2017-Nov-18 17:30S 29°52' E 031°02'0 0.2
2017-Nov-18 16:55S 29°52' E 031°02'0 0.0
2017-Nov-18 16:28S 29°52' E 031°02'6 0.2
2017-Nov-17 11:59S 29°48' E 031°06'1 1.9
2017-Nov-17 11:30S 29°47' E 031°06'1 1.9
2017-Nov-17 11:00S 29°46' E 031°07'1 2.7
2017-Nov-17 10:30S 29°47' E 031°07'0 0.2
2017-Nov-17 10:00S 29°47' E 031°07'1 2.1
2017-Nov-17 09:30S 29°46' E 031°07'1 3.0
2017-Nov-17 09:00S 29°48' E 031°07'1 1.5
2017-Nov-17 08:30S 29°47' E 031°07'1 1.1
2017-Nov-17 08:00S 29°47' E 031°08'1 1.5
2017-Nov-17 07:30S 29°46' E 031°08'0 0.3
2017-Nov-17 07:00S 29°46' E 031°08'0 0.5
2017-Nov-17 06:30S 29°46' E 031°08'2 5.0
2017-Nov-17 06:00S 29°44' E 031°09'0 0.3
2017-Nov-17 05:29S 29°43' E 031°08'0 0.0
2017-Nov-17 04:59S 29°43' E 031°08'0 0.0
2017-Nov-17 04:29S 29°43' E 031°08'0 0.0
2017-Nov-17 03:59S 29°43' E 031°08'0 0.1
2017-Nov-17 03:29S 29°43' E 031°08'0 0.1
2017-Nov-17 02:59S 29°43' E 031°08'0 0.0
2017-Nov-17 02:29S 29°43' E 031°08'0 0.0
2017-Nov-17 01:59S 29°43' E 031°08'0 0.0
2017-Nov-17 01:29S 29°43' E 031°08'0 0.0
2017-Nov-17 00:59S 29°43' E 031°08'0 0.0
2017-Nov-17 00:29S 29°43' E 031°08'0 0.1
2017-Nov-16 23:59S 29°43' E 031°08'0 0.0
2017-Nov-16 23:29S 29°43' E 031°08'0 0.0
2017-Nov-16 22:59S 29°43' E 031°08'0 0.0
2017-Nov-16 22:29S 29°43' E 031°08'0 0.0
2017-Nov-16 21:59S 29°43' E 031°08'0 0.0
2017-Nov-16 21:29S 29°43' E 031°08'0 0.1
2017-Nov-16 20:59S 29°43' E 031°08'0 0.1
2017-Nov-16 20:29S 29°43' E 031°08'0 0.0
2017-Nov-16 19:59S 29°43' E 031°09'0 0.1
2017-Nov-16 19:29S 29°43' E 031°08'0 0.0
2017-Nov-16 18:59S 29°43' E 031°08'0 0.0
2017-Nov-16 18:29S 29°43' E 031°08'0 0.0
2017-Nov-16 17:59S 29°43' E 031°08'0 0.0
2017-Nov-16 17:29S 29°43' E 031°08'0 0.1
2017-Nov-16 16:59S 29°43' E 031°08'0 0.1
2017-Nov-16 16:29S 29°43' E 031°09'0 0.0
2017-Nov-16 15:59S 29°43' E 031°08'0 0.0
2017-Nov-16 15:29S 29°43' E 031°08'0 0.0
2017-Nov-16 14:59S 29°43' E 031°08'0 0.0
2017-Nov-16 14:29S 29°43' E 031°08'0 0.1
2017-Nov-16 14:01S 29°43' E 031°09'0 0.2
2017-Nov-16 13:31S 29°44' E 031°08'1 2.6
2017-Nov-16 13:01S 29°45' E 031°09'4 7.2
2017-Nov-16 12:30S 29°48' E 031°09'1 1.8
2017-Nov-16 12:01S 29°47' E 031°10'3 5.9
2017-Nov-16 11:30S 29°44' E 031°10'3 6.5
2017-Nov-16 11:01S 29°41' E 031°11'1 1.6
2017-Nov-16 10:30S 29°42' E 031°11'3 6.0
2017-Nov-16 10:01S 29°45' E 031°09'3 6.7
2017-Nov-16 09:30S 29°48' E 031°08'2 4.9
2017-Nov-16 09:01S 29°50' E 031°06'2 4.5
2017-Nov-16 08:31S 29°48' E 031°07'2 4.6
2017-Nov-16 08:01S 29°46' E 031°08'1 2.9
2017-Nov-16 07:30S 29°45' E 031°09'3 6.8
2017-Nov-16 07:00S 29°48' E 031°08'3 5.3
2017-Nov-16 06:31S 29°50' E 031°06'2 3.6
2017-Nov-16 06:00S 29°48' E 031°08'1 3.0
2017-Nov-16 05:31S 29°49' E 031°09'3 6.0
2017-Nov-16 05:01S 29°52' E 031°10'3 6.4
2017-Nov-16 04:31S 29°54' E 031°13'2 3.3
2017-Nov-16 04:01S 29°56' E 031°14'1 1.7
2017-Nov-16 03:31S 29°55' E 031°13'1 2.8
2017-Nov-16 03:01S 29°54' E 031°13'1 2.4
2017-Nov-16 02:31S 29°52' E 031°12'5 9.5
2017-Nov-16 02:01S 29°57' E 031°11'510.4
2017-Nov-16 01:31S 30°02' E 031°09'612.1
2017-Nov-16 01:00S 30°07' E 031°06'611.6
2017-Nov-16 00:31S 30°12' E 031°02'510.6
2017-Nov-16 00:00S 30°16' E 030°59'  
2017-Nov-12 14:10S 33°57' E 018°13'1 5.7
2017-Nov-12 13:58S 33°56' E 018°13'3 5.9
2017-Nov-12 13:29S 33°53' E 018°13'1 1.7
2017-Nov-12 13:00S 33°52' E 018°13'1 1.3
2017-Nov-12 12:30S 33°52' E 018°14'3 5.1
2017-Nov-12 12:00S 33°52' E 018°17'3 5.8
2017-Nov-12 11:30S 33°51' E 018°20'3 5.8
2017-Nov-12 11:00S 33°51' E 018°24'2 4.4
2017-Nov-12 10:30S 33°53' E 018°26'2 4.2
2017-Nov-12 10:00S 33°55' E 018°26'0 0.4
2017-Nov-12 09:30S 33°55' E 018°26'0 0.0
2017-Nov-12 09:00S 33°55' E 018°26'0 0.0
2017-Nov-12 08:30S 33°55' E 018°26'0 0.0
2017-Nov-12 08:00S 33°55' E 018°26'0 0.0
2017-Nov-12 07:30S 33°55' E 018°26'0 0.0
2017-Nov-12 06:57S 33°55' E 018°26'0 0.0
2017-Nov-12 06:30S 33°55' E 018°26'0 0.0
2017-Nov-12 06:00S 33°55' E 018°26'0 0.0
2017-Nov-12 05:30S 33°55' E 018°26'0 0.0
2017-Nov-12 05:00S 33°55' E 018°26'0 0.0
2017-Nov-12 04:30S 33°55' E 018°26'0 0.0
2017-Nov-12 03:48S 33°55' E 018°26'0 0.0
2017-Nov-12 03:27S 33°55' E 018°26'0 0.0
2017-Nov-12 02:57S 33°55' E 018°26'0 0.0
2017-Nov-12 02:30S 33°55' E 018°26'0 0.0
2017-Nov-12 02:00S 33°55' E 018°26'0 0.0
2017-Nov-12 01:27S 33°55' E 018°26'0 0.0
2017-Nov-12 01:00S 33°55' E 018°26'0 0.0
2017-Nov-12 00:30S 33°55' E 018°26'0 0.0
2017-Nov-12 00:00S 33°55' E 018°26'0 0.0
2017-Nov-11 23:30S 33°55' E 018°26'0 0.0
2017-Nov-11 23:00S 33°55' E 018°26'0 0.0
2017-Nov-11 22:24S 33°55' E 018°26'0 0.0
2017-Nov-11 21:57S 33°55' E 018°26'0 0.0
2017-Nov-11 21:30S 33°55' E 018°26'0 0.0
2017-Nov-11 20:57S 33°55' E 018°26'0 0.0
2017-Nov-11 20:30S 33°55' E 018°26'0 0.0
2017-Nov-11 20:00S 33°55' E 018°26'0 0.0
2017-Nov-11 19:27S 33°55' E 018°26'0 0.0
2017-Nov-11 19:00S 33°55' E 018°26'0 0.0
2017-Nov-11 18:27S 33°55' E 018°26'0 0.0
2017-Nov-11 18:00S 33°55' E 018°26'0 0.0
2017-Nov-11 17:30S 33°55' E 018°26'0 0.0
2017-Nov-11 17:00S 33°55' E 018°26'0 0.0
2017-Nov-11 16:24S 33°55' E 018°26'0 0.0
2017-Nov-11 16:00S 33°55' E 018°26'0 0.0
2017-Nov-11 15:30S 33°55' E 018°26'0 0.0
2017-Nov-11 15:00S 33°55' E 018°26'0 0.0
2017-Nov-11 14:30S 33°55' E 018°26'0 0.0
2017-Nov-11 13:57S 33°55' E 018°26'0 0.0
2017-Nov-11 13:24S 33°55' E 018°26'0 0.0
2017-Nov-11 13:00S 33°55' E 018°26'0 0.0
2017-Nov-11 12:27S 33°55' E 018°26'0 0.0
2017-Nov-11 11:57S 33°55' E 018°26'0 0.0
2017-Nov-11 11:27S 33°55' E 018°26'0 0.0
2017-Nov-11 10:57S 33°55' E 018°26'0 0.0
2017-Nov-11 10:30S 33°55' E 018°26'0 0.0
2017-Nov-11 09:51S 33°55' E 018°26'0 0.0
2017-Nov-11 09:27S 33°55' E 018°26'0 0.0
2017-Nov-11 09:00S 33°55' E 018°26'0 0.0
2017-Nov-11 08:30S 33°55' E 018°26'0 0.0
2017-Nov-11 07:54S 33°55' E 018°26'0 0.0
2017-Nov-11 07:30S 33°55' E 018°26'0 0.0
2017-Nov-11 06:57S 33°55' E 018°26'0 0.0
2017-Nov-11 06:27S 33°55' E 018°26'0 0.0
2017-Nov-11 06:00S 33°55' E 018°26'0 0.0
2017-Nov-11 05:30S 33°55' E 018°26'0 0.0
2017-Nov-11 05:00S 33°55' E 018°26'0 0.0
2017-Nov-11 04:30S 33°55' E 018°26'0 0.0
2017-Nov-11 04:00S 33°55' E 018°26'0 0.0
2017-Nov-11 03:30S 33°55' E 018°26'0 0.0
2017-Nov-11 03:00S 33°55' E 018°26'0 0.0
2017-Nov-11 02:30S 33°55' E 018°26'0 0.0
2017-Nov-11 02:00S 33°55' E 018°26'0 0.0
2017-Nov-11 01:30S 33°55' E 018°26'0 0.0
2017-Nov-11 00:57S 33°55' E 018°26'0 0.0
2017-Nov-11 00:30S 33°55' E 018°26'0 0.0
2017-Nov-11 00:00S 33°55' E 018°26'0 0.0
2017-Nov-10 23:30S 33°55' E 018°26'0 0.0
2017-Nov-10 23:00S 33°55' E 018°26'0 0.0
2017-Nov-10 22:30S 33°55' E 018°26'0 0.0
2017-Nov-10 21:57S 33°55' E 018°26'0 0.0
2017-Nov-10 21:24S 33°55' E 018°26'0 0.0
2017-Nov-10 21:00S 33°55' E 018°26'0 0.0
2017-Nov-10 20:30S 33°55' E 018°26'0 0.0
2017-Nov-10 20:00S 33°55' E 018°26'0 0.0
2017-Nov-10 19:30S 33°55' E 018°26'0 0.0
2017-Nov-10 18:57S 33°55' E 018°26'0 0.0
2017-Nov-10 18:30S 33°55' E 018°26'0 0.0
2017-Nov-10 18:00S 33°55' E 018°26'0 0.0
2017-Nov-10 17:30S 33°55' E 018°26'0 0.0
2017-Nov-10 17:00S 33°55' E 018°26'0 0.0
2017-Nov-10 16:30S 33°55' E 018°26'0 0.0
2017-Nov-10 16:00S 33°55' E 018°26'0 0.0
2017-Nov-10 15:30S 33°55' E 018°26'0 0.0
2017-Nov-10 15:00S 33°55' E 018°26'0 0.0
2017-Nov-10 14:30S 33°55' E 018°26'0 0.0
2017-Nov-10 14:00S 33°55' E 018°26'0 0.0
2017-Nov-10 13:21S 33°55' E 018°26'0 0.0
2017-Nov-10 13:00S 33°55' E 018°26'0 0.0
2017-Nov-10 12:30S 33°55' E 018°26'0 0.0
2017-Nov-10 11:57S 33°55' E 018°26'0 0.0
2017-Nov-10 11:30S 33°55' E 018°26'0 0.0
2017-Nov-10 11:00S 33°55' E 018°26'0 0.0
2017-Nov-10 10:24S 33°55' E 018°26'0 0.0
2017-Nov-10 10:00S 33°55' E 018°26'0 0.0
2017-Nov-10 09:30S 33°55' E 018°26'0 0.0
2017-Nov-10 09:00S 33°55' E 018°26'0 0.0
2017-Nov-10 08:30S 33°55' E 018°26'0 0.0
2017-Nov-10 08:00S 33°55' E 018°26'0 0.0
2017-Nov-10 07:30S 33°55' E 018°26'0 0.0
2017-Nov-10 07:00S 33°55' E 018°26'0 0.0
2017-Nov-10 06:30S 33°55' E 018°26'0 0.0
2017-Nov-10 06:00S 33°55' E 018°26'0 0.0
2017-Nov-10 05:27S 33°55' E 018°26'0 0.0
2017-Nov-10 05:00S 33°55' E 018°26'0 0.0
2017-Nov-10 04:30S 33°55' E 018°26'0 0.0
2017-Nov-10 03:57S 33°55' E 018°26'0 0.0
2017-Nov-10 03:30S 33°55' E 018°26'0 0.0
2017-Nov-10 03:00S 33°55' E 018°26'0 0.0
2017-Nov-10 02:30S 33°55' E 018°26'0 0.0
2017-Nov-10 02:00S 33°55' E 018°26'0 0.0
2017-Nov-10 01:30S 33°55' E 018°26'0 0.0
2017-Nov-10 01:00S 33°55' E 018°26'0 0.0
2017-Nov-10 00:30S 33°55' E 018°26'0 0.0
2017-Nov-10 00:00S 33°55' E 018°26'  
Track history (hours):
 
Tides and Currents Weather Stations Pressure Air Temp Water Temp Dewpoint Dewpoint Depression Visibility Wind Speed Wind Dir Waves Ship Positions

Bene

Last reported at 2017-Nov-19 23:32 UTC. Time now 2017-Dec-11 00:16 UTC.
Position S 28°40' E 036°09'.
Warning: this ship's position is 21 days out of date.

Length 190 m; draft 10.9 m.

Type: Cargo ship. MMSI: 238309000.

Date/timePositionNaut miles runAvg speedWind from/ knotsBaromVisibWave heightAir tempDewpointWater temp
2017-Nov-19 23:32S 28°40' E 036°09'110.3
2017-Nov-19 23:29S 28°41' E 036°09'610.0
2017-Nov-19 22:54S 28°42' E 036°03'9 9.6
2017-Nov-19 22:01S 28°44' E 035°53'0 9.0
2017-Nov-19 22:00S 28°44' E 035°53'5 9.2
2017-Nov-19 21:30S 28°45' E 035°48'5 9.5
2017-Nov-19 21:00S 28°46' E 035°43'5 9.6
2017-Nov-19 20:30S 28°47' E 035°37'6 9.9
2017-Nov-19 19:54S 28°49' E 035°31'11 9.5
2017-Nov-19 18:46S 28°52' E 035°19'8 9.2
2017-Nov-19 17:54S 28°54' E 035°10'4 9.2
2017-Nov-19 17:30S 28°55' E 035°06'11 9.3
2017-Nov-19 16:21S 28°58' E 034°54'3 9.6
2017-Nov-19 16:00S 28°59' E 034°51'7 9.6
2017-Nov-19 15:20S 29°01' E 034°43'4 9.6
2017-Nov-19 14:53S 29°02' E 034°39'4 9.6
2017-Nov-19 14:30S 29°02' E 034°35'5 9.6
2017-Nov-19 14:00S 29°04' E 034°29'6 9.4
2017-Nov-19 13:23S 29°05' E 034°23'17 9.1
2017-Nov-19 11:31S 29°10' E 034°04'0 9.4
2017-Nov-19 11:30S 29°10' E 034°04'4 8.9
2017-Nov-19 11:00S 29°11' E 033°59'4 8.8
2017-Nov-19 10:30S 29°12' E 033°54'4 8.7
2017-Nov-19 10:00S 29°13' E 033°49'18 8.7
2017-Nov-19 07:57S 29°18' E 033°29'4 8.8
2017-Nov-19 07:27S 29°19' E 033°25'4 9.0
2017-Nov-19 07:00S 29°20' E 033°20'4 8.8
2017-Nov-19 06:30S 29°22' E 033°15'5 8.8
2017-Nov-19 05:58S 29°23' E 033°10'4 8.8
2017-Nov-19 05:30S 29°24' E 033°06'8 8.8
2017-Nov-19 04:34S 29°26' E 032°56'2 8.6
2017-Nov-19 04:17S 29°27' E 032°54'3 8.6
2017-Nov-19 03:59S 29°27' E 032°51'4 8.4
2017-Nov-19 03:30S 29°28' E 032°47'4 8.4
2017-Nov-19 03:00S 29°30' E 032°42'4 8.5
2017-Nov-19 02:30S 29°31' E 032°37'4 8.5
2017-Nov-19 02:00S 29°32' E 032°33'4 8.8
2017-Nov-19 01:30S 29°33' E 032°28'5 9.0
2017-Nov-19 01:00S 29°34' E 032°23'5 9.1
2017-Nov-19 00:30S 29°35' E 032°18'5 9.2
2017-Nov-19 00:00S 29°36' E 032°12'5 9.1
2017-Nov-18 23:30S 29°37' E 032°07'5 9.0
2017-Nov-18 23:00S 29°38' E 032°02'4 8.9
2017-Nov-18 22:30S 29°40' E 031°57'4 8.7
2017-Nov-18 22:00S 29°41' E 031°53'4 8.8
2017-Nov-18 21:30S 29°42' E 031°48'510.3
2017-Nov-18 21:00S 29°43' E 031°42'611.3
2017-Nov-18 20:30S 29°44' E 031°35'611.3
2017-Nov-18 20:00S 29°46' E 031°29'611.2
2017-Nov-18 19:30S 29°47' E 031°23'611.5
2017-Nov-18 19:00S 29°49' E 031°17'611.0
2017-Nov-18 18:30S 29°50' E 031°11'6 9.5
2017-Nov-18 17:52S 29°52' E 031°04'2 4.8
2017-Nov-18 17:30S 29°52' E 031°02'0 0.2
2017-Nov-18 16:55S 29°52' E 031°02'0 0.0
2017-Nov-18 16:28S 29°52' E 031°02'6 0.2
2017-Nov-17 11:59S 29°48' E 031°06'1 1.9
2017-Nov-17 11:30S 29°47' E 031°06'1 1.9
2017-Nov-17 11:00S 29°46' E 031°07'1 2.7
2017-Nov-17 10:30S 29°47' E 031°07'0 0.2
2017-Nov-17 10:00S 29°47' E 031°07'1 2.1
2017-Nov-17 09:30S 29°46' E 031°07'1 3.0
2017-Nov-17 09:00S 29°48' E 031°07'1 1.5
2017-Nov-17 08:30S 29°47' E 031°07'1 1.1
2017-Nov-17 08:00S 29°47' E 031°08'1 1.5
2017-Nov-17 07:30S 29°46' E 031°08'0 0.3
2017-Nov-17 07:00S 29°46' E 031°08'0 0.5
2017-Nov-17 06:30S 29°46' E 031°08'2 5.0
2017-Nov-17 06:00S 29°44' E 031°09'0 0.3
2017-Nov-17 05:29S 29°43' E 031°08'0 0.0
2017-Nov-17 04:59S 29°43' E 031°08'0 0.0
2017-Nov-17 04:29S 29°43' E 031°08'0 0.0
2017-Nov-17 03:59S 29°43' E 031°08'0 0.1
2017-Nov-17 03:29S 29°43' E 031°08'0 0.1
2017-Nov-17 02:59S 29°43' E 031°08'0 0.0
2017-Nov-17 02:29S 29°43' E 031°08'0 0.0
2017-Nov-17 01:59S 29°43' E 031°08'0 0.0
2017-Nov-17 01:29S 29°43' E 031°08'0 0.0
2017-Nov-17 00:59S 29°43' E 031°08'0 0.0
2017-Nov-17 00:29S 29°43' E 031°08'0 0.1
2017-Nov-16 23:59S 29°43' E 031°08'0 0.0
2017-Nov-16 23:29S 29°43' E 031°08'0 0.0
2017-Nov-16 22:59S 29°43' E 031°08'0 0.0
2017-Nov-16 22:29S 29°43' E 031°08'0 0.0
2017-Nov-16 21:59S 29°43' E 031°08'0 0.0
2017-Nov-16 21:29S 29°43' E 031°08'0 0.1
2017-Nov-16 20:59S 29°43' E 031°08'0 0.1
2017-Nov-16 20:29S 29°43' E 031°08'0 0.0
2017-Nov-16 19:59S 29°43' E 031°09'0 0.1
2017-Nov-16 19:29S 29°43' E 031°08'0 0.0
2017-Nov-16 18:59S 29°43' E 031°08'0 0.0
2017-Nov-16 18:29S 29°43' E 031°08'0 0.0
2017-Nov-16 17:59S 29°43' E 031°08'0 0.0
2017-Nov-16 17:29S 29°43' E 031°08'0 0.1
2017-Nov-16 16:59S 29°43' E 031°08'0 0.1
2017-Nov-16 16:29S 29°43' E 031°09'0 0.0
2017-Nov-16 15:59S 29°43' E 031°08'0 0.0
2017-Nov-16 15:29S 29°43' E 031°08'0 0.0
2017-Nov-16 14:59S 29°43' E 031°08'0 0.0
2017-Nov-16 14:29S 29°43' E 031°08'0 0.1
2017-Nov-16 14:01S 29°43' E 031°09'0 0.2
2017-Nov-16 13:31S 29°44' E 031°08'1 2.6
2017-Nov-16 13:01S 29°45' E 031°09'4 7.2
2017-Nov-16 12:30S 29°48' E 031°09'1 1.8
2017-Nov-16 12:01S 29°47' E 031°10'3 5.9
2017-Nov-16 11:30S 29°44' E 031°10'3 6.5
2017-Nov-16 11:01S 29°41' E 031°11'1 1.6
2017-Nov-16 10:30S 29°42' E 031°11'3 6.0
2017-Nov-16 10:01S 29°45' E 031°09'3 6.7
2017-Nov-16 09:30S 29°48' E 031°08'2 4.9
2017-Nov-16 09:01S 29°50' E 031°06'2 4.5
2017-Nov-16 08:31S 29°48' E 031°07'2 4.6
2017-Nov-16 08:01S 29°46' E 031°08'1 2.9
2017-Nov-16 07:30S 29°45' E 031°09'3 6.8
2017-Nov-16 07:00S 29°48' E 031°08'3 5.3
2017-Nov-16 06:31S 29°50' E 031°06'2 3.6
2017-Nov-16 06:00S 29°48' E 031°08'1 3.0
2017-Nov-16 05:31S 29°49' E 031°09'3 6.0
2017-Nov-16 05:01S 29°52' E 031°10'3 6.4
2017-Nov-16 04:31S 29°54' E 031°13'2 3.3
2017-Nov-16 04:01S 29°56' E 031°14'1 1.7
2017-Nov-16 03:31S 29°55' E 031°13'1 2.8
2017-Nov-16 03:01S 29°54' E 031°13'1 2.4
2017-Nov-16 02:31S 29°52' E 031°12'5 9.5
2017-Nov-16 02:01S 29°57' E 031°11'510.4
2017-Nov-16 01:31S 30°02' E 031°09'612.1
2017-Nov-16 01:00S 30°07' E 031°06'611.6
2017-Nov-16 00:31S 30°12' E 031°02'510.6
2017-Nov-16 00:00S 30°16' E 030°59'  
2017-Nov-12 14:10S 33°57' E 018°13'1 5.7
2017-Nov-12 13:58S 33°56' E 018°13'3 5.9
2017-Nov-12 13:29S 33°53' E 018°13'1 1.7
2017-Nov-12 13:00S 33°52' E 018°13'1 1.3
2017-Nov-12 12:30S 33°52' E 018°14'3 5.1
2017-Nov-12 12:00S 33°52' E 018°17'3 5.8
2017-Nov-12 11:30S 33°51' E 018°20'3 5.8
2017-Nov-12 11:00S 33°51' E 018°24'2 4.4
2017-Nov-12 10:30S 33°53' E 018°26'2 4.2
2017-Nov-12 10:00S 33°55' E 018°26'0 0.4
2017-Nov-12 09:30S 33°55' E 018°26'0 0.0
2017-Nov-12 09:00S 33°55' E 018°26'0 0.0
2017-Nov-12 08:30S 33°55' E 018°26'0 0.0
2017-Nov-12 08:00S 33°55' E 018°26'0 0.0
2017-Nov-12 07:30S 33°55' E 018°26'0 0.0
2017-Nov-12 06:57S 33°55' E 018°26'0 0.0
2017-Nov-12 06:30S 33°55' E 018°26'0 0.0
2017-Nov-12 06:00S 33°55' E 018°26'0 0.0
2017-Nov-12 05:30S 33°55' E 018°26'0 0.0
2017-Nov-12 05:00S 33°55' E 018°26'0 0.0
2017-Nov-12 04:30S 33°55' E 018°26'0 0.0
2017-Nov-12 03:48S 33°55' E 018°26'0 0.0
2017-Nov-12 03:27S 33°55' E 018°26'0 0.0
2017-Nov-12 02:57S 33°55' E 018°26'0 0.0
2017-Nov-12 02:30S 33°55' E 018°26'0 0.0
2017-Nov-12 02:00S 33°55' E 018°26'0 0.0
2017-Nov-12 01:27S 33°55' E 018°26'0 0.0
2017-Nov-12 01:00S 33°55' E 018°26'0 0.0
2017-Nov-12 00:30S 33°55' E 018°26'0 0.0
2017-Nov-12 00:00S 33°55' E 018°26'0 0.0
2017-Nov-11 23:30S 33°55' E 018°26'0 0.0
2017-Nov-11 23:00S 33°55' E 018°26'0 0.0
2017-Nov-11 22:24S 33°55' E 018°26'0 0.0
2017-Nov-11 21:57S 33°55' E 018°26'0 0.0
2017-Nov-11 21:30S 33°55' E 018°26'0 0.0
2017-Nov-11 20:57S 33°55' E 018°26'0 0.0
2017-Nov-11 20:30S 33°55' E 018°26'0 0.0
2017-Nov-11 20:00S 33°55' E 018°26'0 0.0
2017-Nov-11 19:27S 33°55' E 018°26'0 0.0
2017-Nov-11 19:00S 33°55' E 018°26'0 0.0
2017-Nov-11 18:27S 33°55' E 018°26'0 0.0
2017-Nov-11 18:00S 33°55' E 018°26'0 0.0
2017-Nov-11 17:30S 33°55' E 018°26'0 0.0
2017-Nov-11 17:00S 33°55' E 018°26'0 0.0
2017-Nov-11 16:24S 33°55' E 018°26'0 0.0
2017-Nov-11 16:00S 33°55' E 018°26'0 0.0
2017-Nov-11 15:30S 33°55' E 018°26'0 0.0
2017-Nov-11 15:00S 33°55' E 018°26'0 0.0
2017-Nov-11 14:30S 33°55' E 018°26'0 0.0
2017-Nov-11 13:57S 33°55' E 018°26'0 0.0
2017-Nov-11 13:24S 33°55' E 018°26'0 0.0
2017-Nov-11 13:00S 33°55' E 018°26'0 0.0
2017-Nov-11 12:27S 33°55' E 018°26'0 0.0
2017-Nov-11 11:57S 33°55' E 018°26'0 0.0
2017-Nov-11 11:27S 33°55' E 018°26'0 0.0
2017-Nov-11 10:57S 33°55' E 018°26'0 0.0
2017-Nov-11 10:30S 33°55' E 018°26'0 0.0
2017-Nov-11 09:51S 33°55' E 018°26'0 0.0
2017-Nov-11 09:27S 33°55' E 018°26'0 0.0
2017-Nov-11 09:00S 33°55' E 018°26'0 0.0
2017-Nov-11 08:30S 33°55' E 018°26'0 0.0
2017-Nov-11 07:54S 33°55' E 018°26'0 0.0
2017-Nov-11 07:30S 33°55' E 018°26'0 0.0
2017-Nov-11 06:57S 33°55' E 018°26'0 0.0
2017-Nov-11 06:27S 33°55' E 018°26'0 0.0
2017-Nov-11 06:00S 33°55' E 018°26'0 0.0
2017-Nov-11 05:30S 33°55' E 018°26'0 0.0
2017-Nov-11 05:00S 33°55' E 018°26'0 0.0
2017-Nov-11 04:30S 33°55' E 018°26'0 0.0
2017-Nov-11 04:00S 33°55' E 018°26'0 0.0
2017-Nov-11 03:30S 33°55' E 018°26'0 0.0
2017-Nov-11 03:00S 33°55' E 018°26'0 0.0
2017-Nov-11 02:30S 33°55' E 018°26'0 0.0
2017-Nov-11 02:00S 33°55' E 018°26'0 0.0
2017-Nov-11 01:30S 33°55' E 018°26'0 0.0
2017-Nov-11 00:57S 33°55' E 018°26'0 0.0
2017-Nov-11 00:30S 33°55' E 018°26'0 0.0
2017-Nov-11 00:00S 33°55' E 018°26'0 0.0
2017-Nov-10 23:30S 33°55' E 018°26'0 0.0
2017-Nov-10 23:00S 33°55' E 018°26'0 0.0
2017-Nov-10 22:30S 33°55' E 018°26'0 0.0
2017-Nov-10 21:57S 33°55' E 018°26'0 0.0
2017-Nov-10 21:24S 33°55' E 018°26'0 0.0
2017-Nov-10 21:00S 33°55' E 018°26'0 0.0
2017-Nov-10 20:30S 33°55' E 018°26'0 0.0
2017-Nov-10 20:00S 33°55' E 018°26'0 0.0
2017-Nov-10 19:30S 33°55' E 018°26'0 0.0
2017-Nov-10 18:57S 33°55' E 018°26'0 0.0
2017-Nov-10 18:30S 33°55' E 018°26'0 0.0
2017-Nov-10 18:00S 33°55' E 018°26'0 0.0
2017-Nov-10 17:30S 33°55' E 018°26'0 0.0
2017-Nov-10 17:00S 33°55' E 018°26'0 0.0
2017-Nov-10 16:30S 33°55' E 018°26'0 0.0
2017-Nov-10 16:00S 33°55' E 018°26'0 0.0
2017-Nov-10 15:30S 33°55' E 018°26'0 0.0
2017-Nov-10 15:00S 33°55' E 018°26'0 0.0
2017-Nov-10 14:30S 33°55' E 018°26'0 0.0
2017-Nov-10 14:00S 33°55' E 018°26'0 0.0
2017-Nov-10 13:21S 33°55' E 018°26'0 0.0
2017-Nov-10 13:00S 33°55' E 018°26'0 0.0
2017-Nov-10 12:30S 33°55' E 018°26'0 0.0
2017-Nov-10 11:57S 33°55' E 018°26'0 0.0
2017-Nov-10 11:30S 33°55' E 018°26'0 0.0
2017-Nov-10 11:00S 33°55' E 018°26'0 0.0
2017-Nov-10 10:24S 33°55' E 018°26'0 0.0
2017-Nov-10 10:00S 33°55' E 018°26'0 0.0
2017-Nov-10 09:30S 33°55' E 018°26'0 0.0
2017-Nov-10 09:00S 33°55' E 018°26'0 0.0
2017-Nov-10 08:30S 33°55' E 018°26'0 0.0
2017-Nov-10 08:00S 33°55' E 018°26'0 0.0
2017-Nov-10 07:30S 33°55' E 018°26'0 0.0
2017-Nov-10 07:00S 33°55' E 018°26'0 0.0
2017-Nov-10 06:30S 33°55' E 018°26'0 0.0
2017-Nov-10 06:00S 33°55' E 018°26'0 0.0
2017-Nov-10 05:27S 33°55' E 018°26'0 0.0
2017-Nov-10 05:00S 33°55' E 018°26'0 0.0
2017-Nov-10 04:30S 33°55' E 018°26'0 0.0
2017-Nov-10 03:57S 33°55' E 018°26'0 0.0
2017-Nov-10 03:30S 33°55' E 018°26'0 0.0
2017-Nov-10 03:00S 33°55' E 018°26'0 0.0
2017-Nov-10 02:30S 33°55' E 018°26'0 0.0
2017-Nov-10 02:00S 33°55' E 018°26'0 0.0
2017-Nov-10 01:30S 33°55' E 018°26'0 0.0
2017-Nov-10 01:00S 33°55' E 018°26'0 0.0
2017-Nov-10 00:30S 33°55' E 018°26'0 0.0
2017-Nov-10 00:00S 33°55' E 018°26'  

Dump ship's entire track history